sensor_id;sensor_type;location;lat;lon;timestamp;P1;durP1;ratioP1;P2;durP2;ratioP2
10063;SDS011;5071;52.360;13.134;2022-08-06T00:01:27;5.13;;;0.60;;
10063;SDS011;5071;52.360;13.134;2022-08-06T00:06:31;1.73;;;0.80;;
10063;SDS011;5071;52.360;13.134;2022-08-06T00:11:36;0.33;;;0.33;;
10063;SDS011;5071;52.360;13.134;2022-08-06T00:16:39;0.50;;;0.50;;
10063;SDS011;5071;52.360;13.134;2022-08-06T00:21:42;0.50;;;0.50;;
10063;SDS011;5071;52.360;13.134;2022-08-06T00:26:46;2.97;;;0.60;;
10063;SDS011;5071;52.360;13.134;2022-08-06T00:32:06;0.40;;;0.40;;
10063;SDS011;5071;52.360;13.134;2022-08-06T00:37:12;2.70;;;0.60;;
10063;SDS011;5071;52.360;13.134;2022-08-06T00:42:21;0.40;;;0.40;;
10063;SDS011;5071;52.360;13.134;2022-08-06T00:47:23;0.40;;;0.40;;
10063;SDS011;5071;52.360;13.134;2022-08-06T00:52:46;1.70;;;0.40;;
10063;SDS011;5071;52.360;13.134;2022-08-06T00:57:49;2.33;;;0.80;;
10063;SDS011;5071;52.360;13.134;2022-08-06T01:02:51;0.57;;;0.40;;
10063;SDS011;5071;52.360;13.134;2022-08-06T01:07:54;2.00;;;0.40;;
10063;SDS011;5071;52.360;13.134;2022-08-06T01:13:01;0.63;;;0.47;;
10063;SDS011;5071;52.360;13.134;2022-08-06T01:18:23;2.90;;;0.60;;
10063;SDS011;5071;52.360;13.134;2022-08-06T01:23:35;1.07;;;0.50;;
10063;SDS011;5071;52.360;13.134;2022-08-06T01:28:52;0.53;;;0.53;;
10063;SDS011;5071;52.360;13.134;2022-08-06T01:34:02;1.73;;;0.50;;
10063;SDS011;5071;52.360;13.134;2022-08-06T01:39:09;2.83;;;0.50;;
10063;SDS011;5071;52.360;13.134;2022-08-06T01:44:37;3.50;;;0.60;;
10063;SDS011;5071;52.360;13.134;2022-08-06T01:49:50;0.47;;;0.47;;
10063;SDS011;5071;52.360;13.134;2022-08-06T01:55:05;0.47;;;0.40;;
10063;SDS011;5071;52.360;13.134;2022-08-06T02:00:15;1.23;;;0.60;;
10063;SDS011;5071;52.360;13.134;2022-08-06T02:05:19;0.77;;;0.57;;
10063;SDS011;5071;52.360;13.134;2022-08-06T02:10:23;1.90;;;0.50;;
10063;SDS011;5071;52.360;13.134;2022-08-06T02:15:29;0.60;;;0.50;;
10063;SDS011;5071;52.360;13.134;2022-08-06T02:20:54;0.53;;;0.53;;
10063;SDS011;5071;52.360;13.134;2022-08-06T02:26:19;0.60;;;0.60;;
10063;SDS011;5071;52.360;13.134;2022-08-06T02:31:33;3.63;;;0.73;;
10063;SDS011;5071;52.360;13.134;2022-08-06T02:36:49;0.90;;;0.60;;
10063;SDS011;5071;52.360;13.134;2022-08-06T02:42:00;2.17;;;0.70;;
10063;SDS011;5071;52.360;13.134;2022-08-06T02:47:19;0.50;;;0.50;;
10063;SDS011;5071;52.360;13.134;2022-08-06T02:52:46;2.57;;;0.60;;
10063;SDS011;5071;52.360;13.134;2022-08-06T02:58:00;0.50;;;0.50;;
10063;SDS011;5071;52.360;13.134;2022-08-06T03:03:14;0.60;;;0.60;;
10063;SDS011;5071;52.360;13.134;2022-08-06T03:08:36;1.23;;;0.60;;
10063;SDS011;5071;52.360;13.134;2022-08-06T03:13:38;0.77;;;0.60;;
10063;SDS011;5071;52.360;13.134;2022-08-06T03:18:44;1.90;;;0.80;;
10063;SDS011;5071;52.360;13.134;2022-08-06T03:23:47;1.77;;;0.83;;
10063;SDS011;5071;52.360;13.134;2022-08-06T03:28:51;0.60;;;0.60;;
10063;SDS011;5071;52.360;13.134;2022-08-06T03:33:58;1.40;;;0.70;;
10063;SDS011;5071;52.360;13.134;2022-08-06T03:39:05;1.53;;;0.70;;
10063;SDS011;5071;52.360;13.134;2022-08-06T03:44:10;1.43;;;0.83;;
10063;SDS011;5071;52.360;13.134;2022-08-06T03:49:19;1.43;;;0.83;;
10063;SDS011;5071;52.360;13.134;2022-08-06T03:54:43;0.70;;;0.70;;
10063;SDS011;5071;52.360;13.134;2022-08-06T03:59:52;0.80;;;0.80;;
10063;SDS011;5071;52.360;13.134;2022-08-06T04:05:02;3.87;;;0.77;;
10063;SDS011;5071;52.360;13.134;2022-08-06T04:10:07;0.90;;;0.70;;
10063;SDS011;5071;52.360;13.134;2022-08-06T04:15:12;2.43;;;0.77;;
10063;SDS011;5071;52.360;13.134;2022-08-06T04:20:18;0.60;;;0.60;;
10063;SDS011;5071;52.360;13.134;2022-08-06T04:25:43;0.57;;;0.57;;
10063;SDS011;5071;52.360;13.134;2022-08-06T04:30:49;0.50;;;0.50;;
10063;SDS011;5071;52.360;13.134;2022-08-06T04:35:54;1.37;;;1.00;;
10063;SDS011;5071;52.360;13.134;2022-08-06T04:41:16;2.43;;;0.70;;
10063;SDS011;5071;52.360;13.134;2022-08-06T04:46:19;1.80;;;0.70;;
10063;SDS011;5071;52.360;13.134;2022-08-06T04:51:23;0.63;;;0.60;;
10063;SDS011;5071;52.360;13.134;2022-08-06T04:56:45;0.93;;;0.70;;
10063;SDS011;5071;52.360;13.134;2022-08-06T05:01:50;0.60;;;0.60;;
10063;SDS011;5071;52.360;13.134;2022-08-06T05:07:05;1.03;;;0.60;;
10063;SDS011;5071;52.360;13.134;2022-08-06T05:12:16;2.87;;;0.73;;
10063;SDS011;5071;52.360;13.134;2022-08-06T05:17:24;1.77;;;0.70;;
10063;SDS011;5071;52.360;13.134;2022-08-06T05:22:37;1.50;;;1.00;;
10063;SDS011;5071;52.360;13.134;2022-08-06T05:27:55;0.70;;;0.70;;
10063;SDS011;5071;52.360;13.134;2022-08-06T05:33:21;1.30;;;0.77;;
10063;SDS011;5071;52.360;13.134;2022-08-06T05:38:28;0.77;;;0.60;;
10063;SDS011;5071;52.360;13.134;2022-08-06T05:43:37;3.80;;;1.07;;
10063;SDS011;5071;52.360;13.134;2022-08-06T05:49:05;1.23;;;0.60;;
10063;SDS011;5071;52.360;13.134;2022-08-06T05:54:32;4.22;;;0.75;;
10063;SDS011;5071;52.360;13.134;2022-08-06T05:59:39;2.65;;;0.63;;
10063;SDS011;5071;52.360;13.134;2022-08-06T06:04:58;1.85;;;0.50;;
10063;SDS011;5071;52.360;13.134;2022-08-06T06:10:23;0.90;;;0.60;;
10063;SDS011;5071;52.360;13.134;2022-08-06T06:15:27;1.65;;;0.52;;
10063;SDS011;5071;52.360;13.134;2022-08-06T06:20:52;2.85;;;0.50;;
10063;SDS011;5071;52.360;13.134;2022-08-06T06:26:22;0.60;;;0.45;;
10063;SDS011;5071;52.360;13.134;2022-08-06T06:31:37;0.80;;;0.45;;
10063;SDS011;5071;52.360;13.134;2022-08-06T06:37:09;0.60;;;0.30;;
10063;SDS011;5071;52.360;13.134;2022-08-06T06:42:24;0.38;;;0.30;;
10063;SDS011;5071;52.360;13.134;2022-08-06T06:47:36;1.55;;;0.40;;
10063;SDS011;5071;52.360;13.134;2022-08-06T06:52:53;0.52;;;0.40;;
10063;SDS011;5071;52.360;13.134;2022-08-06T06:58:01;0.30;;;0.30;;
10063;SDS011;5071;52.360;13.134;2022-08-06T07:03:11;0.65;;;0.40;;
10063;SDS011;5071;52.360;13.134;2022-08-06T07:08:16;0.38;;;0.28;;
10063;SDS011;5071;52.360;13.134;2022-08-06T07:13:40;0.35;;;0.30;;
10063;SDS011;5071;52.360;13.134;2022-08-06T07:18:52;0.63;;;0.40;;
10063;SDS011;5071;52.360;13.134;2022-08-06T07:23:56;1.73;;;0.50;;
10063;SDS011;5071;52.360;13.134;2022-08-06T07:29:21;0.70;;;0.38;;
10063;SDS011;5071;52.360;13.134;2022-08-06T07:34:46;2.22;;;0.40;;
10063;SDS011;5071;52.360;13.134;2022-08-06T07:45:33;0.40;;;0.40;;
10063;SDS011;5071;52.360;13.134;2022-08-06T07:50:52;0.30;;;0.30;;
10063;SDS011;5071;52.360;13.134;2022-08-06T07:55:56;0.30;;;0.30;;
10063;SDS011;5071;52.360;13.134;2022-08-06T08:01:00;0.45;;;0.30;;
10063;SDS011;5071;52.360;13.134;2022-08-06T08:06:05;0.40;;;0.40;;
10063;SDS011;5071;52.360;13.134;2022-08-06T08:11:08;0.53;;;0.30;;
10063;SDS011;5071;52.360;13.134;2022-08-06T08:16:13;1.20;;;0.50;;
10063;SDS011;5071;52.360;13.134;2022-08-06T08:21:28;0.40;;;0.40;;
10063;SDS011;5071;52.360;13.134;2022-08-06T08:26:32;0.47;;;0.40;;
10063;SDS011;5071;52.360;13.134;2022-08-06T08:31:55;0.40;;;0.40;;
10063;SDS011;5071;52.360;13.134;2022-08-06T08:37:00;0.30;;;0.30;;
10063;SDS011;5071;52.360;13.134;2022-08-06T08:42:18;0.35;;;0.35;;
10063;SDS011;5071;52.360;13.134;2022-08-06T08:47:34;0.95;;;0.30;;
10063;SDS011;5071;52.360;13.134;2022-08-06T08:52:57;0.50;;;0.32;;
10063;SDS011;5071;52.360;13.134;2022-08-06T08:58:04;0.32;;;0.32;;
10063;SDS011;5071;52.360;13.134;2022-08-06T09:03:28;2.90;;;0.50;;
10063;SDS011;5071;52.360;13.134;2022-08-06T09:08:32;0.40;;;0.40;;
10063;SDS011;5071;52.360;13.134;2022-08-06T09:13:55;0.30;;;0.20;;
10063;SDS011;5071;52.360;13.134;2022-08-06T09:19:03;0.85;;;0.40;;
10063;SDS011;5071;52.360;13.134;2022-08-06T09:24:11;0.30;;;0.30;;
10063;SDS011;5071;52.360;13.134;2022-08-06T09:29:19;4.22;;;0.40;;
10063;SDS011;5071;52.360;13.134;2022-08-06T09:34:34;0.85;;;0.40;;
10063;SDS011;5071;52.360;13.134;2022-08-06T09:39:39;2.08;;;0.40;;
10063;SDS011;5071;52.360;13.134;2022-08-06T09:45:05;0.20;;;0.20;;
10063;SDS011;5071;52.360;13.134;2022-08-06T09:50:29;0.50;;;0.30;;
10063;SDS011;5071;52.360;13.134;2022-08-06T09:55:38;0.43;;;0.40;;
10063;SDS011;5071;52.360;13.134;2022-08-06T10:00:42;0.40;;;0.40;;
10063;SDS011;5071;52.360;13.134;2022-08-06T10:06:06;1.45;;;0.40;;
10063;SDS011;5071;52.360;13.134;2022-08-06T10:11:15;0.30;;;0.30;;
10063;SDS011;5071;52.360;13.134;2022-08-06T10:16:42;0.52;;;0.40;;
10063;SDS011;5071;52.360;13.134;2022-08-06T10:21:45;0.63;;;0.32;;
10063;SDS011;5071;52.360;13.134;2022-08-06T10:26:48;0.93;;;0.43;;
10063;SDS011;5071;52.360;13.134;2022-08-06T10:31:51;1.05;;;0.40;;
10063;SDS011;5071;52.360;13.134;2022-08-06T10:36:57;0.95;;;0.30;;
10063;SDS011;5071;52.360;13.134;2022-08-06T10:42:00;0.43;;;0.28;;
10063;SDS011;5071;52.360;13.134;2022-08-06T10:47:23;0.30;;;0.30;;
10063;SDS011;5071;52.360;13.134;2022-08-06T10:52:47;0.52;;;0.40;;
10063;SDS011;5071;52.360;13.134;2022-08-06T10:57:51;0.70;;;0.30;;
10063;SDS011;5071;52.360;13.134;2022-08-06T11:02:56;0.20;;;0.20;;
10063;SDS011;5071;52.360;13.134;2022-08-06T11:08:19;1.85;;;0.25;;
10063;SDS011;5071;52.360;13.134;2022-08-06T11:13:54;0.22;;;0.22;;
10063;SDS011;5071;52.360;13.134;2022-08-06T11:19:04;0.30;;;0.30;;
10063;SDS011;5071;52.360;13.134;2022-08-06T11:24:11;1.80;;;0.40;;
10063;SDS011;5071;52.360;13.134;2022-08-06T11:29:16;0.38;;;0.30;;
10063;SDS011;5071;52.360;13.134;2022-08-06T11:34:20;0.38;;;0.38;;
10063;SDS011;5071;52.360;13.134;2022-08-06T11:40:03;0.28;;;0.28;;
10063;SDS011;5071;52.360;13.134;2022-08-06T11:45:07;2.38;;;0.57;;
10063;SDS011;5071;52.360;13.134;2022-08-06T11:50:30;0.57;;;0.20;;
10063;SDS011;5071;52.360;13.134;2022-08-06T11:55:44;0.20;;;0.20;;
10063;SDS011;5071;52.360;13.134;2022-08-06T12:01:05;0.35;;;0.20;;
10063;SDS011;5071;52.360;13.134;2022-08-06T12:06:28;0.63;;;0.47;;
10063;SDS011;5071;52.360;13.134;2022-08-06T12:11:31;0.50;;;0.30;;
10063;SDS011;5071;52.360;13.134;2022-08-06T12:16:37;0.77;;;0.22;;
10063;SDS011;5071;52.360;13.134;2022-08-06T12:21:42;1.40;;;0.40;;
10063;SDS011;5071;52.360;13.134;2022-08-06T12:26:51;0.55;;;0.30;;
10063;SDS011;5071;52.360;13.134;2022-08-06T12:31:54;0.20;;;0.20;;
10063;SDS011;5071;52.360;13.134;2022-08-06T12:36:57;0.30;;;0.30;;
10063;SDS011;5071;52.360;13.134;2022-08-06T12:42:00;0.20;;;0.20;;
10063;SDS011;5071;52.360;13.134;2022-08-06T12:47:14;0.32;;;0.30;;
10063;SDS011;5071;52.360;13.134;2022-08-06T12:52:17;0.20;;;0.20;;
10063;SDS011;5071;52.360;13.134;2022-08-06T12:57:31;0.68;;;0.40;;
10063;SDS011;5071;52.360;13.134;2022-08-06T13:02:54;0.30;;;0.30;;
10063;SDS011;5071;52.360;13.134;2022-08-06T13:07:57;0.85;;;0.28;;
10063;SDS011;5071;52.360;13.134;2022-08-06T13:13:03;1.08;;;0.30;;
10063;SDS011;5071;52.360;13.134;2022-08-06T13:18:26;1.08;;;0.20;;
10063;SDS011;5071;52.360;13.134;2022-08-06T13:23:49;0.30;;;0.30;;
10063;SDS011;5071;52.360;13.134;2022-08-06T13:29:08;0.52;;;0.20;;
10063;SDS011;5071;52.360;13.134;2022-08-06T13:39:53;0.40;;;0.30;;
10063;SDS011;5071;52.360;13.134;2022-08-06T13:44:57;0.45;;;0.28;;
10063;SDS011;5071;52.360;13.134;2022-08-06T13:49:59;0.20;;;0.20;;
10063;SDS011;5071;52.360;13.134;2022-08-06T13:55:07;0.38;;;0.35;;
10063;SDS011;5071;52.360;13.134;2022-08-06T14:00:16;0.73;;;0.25;;
10063;SDS011;5071;52.360;13.134;2022-08-06T14:05:21;0.35;;;0.30;;
10063;SDS011;5071;52.360;13.134;2022-08-06T14:10:24;0.30;;;0.30;;
10063;SDS011;5071;52.360;13.134;2022-08-06T14:15:32;1.00;;;0.50;;
10063;SDS011;5071;52.360;13.134;2022-08-06T14:20:43;0.20;;;0.20;;
10063;SDS011;5071;52.360;13.134;2022-08-06T14:25:46;0.30;;;0.30;;
10063;SDS011;5071;52.360;13.134;2022-08-06T14:31:05;0.63;;;0.40;;
10063;SDS011;5071;52.360;13.134;2022-08-06T14:36:09;0.30;;;0.30;;
10063;SDS011;5071;52.360;13.134;2022-08-06T14:41:11;0.63;;;0.30;;
10063;SDS011;5071;52.360;13.134;2022-08-06T14:46:18;0.20;;;0.20;;
10063;SDS011;5071;52.360;13.134;2022-08-06T14:51:26;0.28;;;0.20;;
10063;SDS011;5071;52.360;13.134;2022-08-06T14:56:49;1.13;;;0.20;;
10063;SDS011;5071;52.360;13.134;2022-08-06T15:01:54;0.30;;;0.28;;
10063;SDS011;5071;52.360;13.134;2022-08-06T15:06:57;0.47;;;0.30;;
10063;SDS011;5071;52.360;13.134;2022-08-06T15:12:00;0.80;;;0.20;;
10063;SDS011;5071;52.360;13.134;2022-08-06T15:17:07;0.30;;;0.30;;
10063;SDS011;5071;52.360;13.134;2022-08-06T15:22:29;0.20;;;0.20;;
10063;SDS011;5071;52.360;13.134;2022-08-06T15:27:37;0.30;;;0.30;;
10063;SDS011;5071;52.360;13.134;2022-08-06T15:32:40;0.40;;;0.40;;
10063;SDS011;5071;52.360;13.134;2022-08-06T15:37:57;0.50;;;0.40;;
10063;SDS011;5071;52.360;13.134;2022-08-06T15:43:08;0.50;;;0.50;;
10063;SDS011;5071;52.360;13.134;2022-08-06T15:48:15;0.77;;;0.30;;
10063;SDS011;5071;52.360;13.134;2022-08-06T15:53:29;0.32;;;0.30;;
10063;SDS011;5071;52.360;13.134;2022-08-06T15:58:31;0.20;;;0.20;;
10063;SDS011;5071;52.360;13.134;2022-08-06T16:03:34;0.32;;;0.28;;
10063;SDS011;5071;52.360;13.134;2022-08-06T16:08:57;0.40;;;0.40;;
10063;SDS011;5071;52.360;13.134;2022-08-06T16:14:00;0.15;;;0.15;;
10063;SDS011;5071;52.360;13.134;2022-08-06T16:19:05;0.30;;;0.30;;
10063;SDS011;5071;52.360;13.134;2022-08-06T16:24:22;0.55;;;0.30;;
10063;SDS011;5071;52.360;13.134;2022-08-06T16:29:26;0.65;;;0.40;;
10063;SDS011;5071;52.360;13.134;2022-08-06T16:34:30;1.65;;;1.13;;
10063;SDS011;5071;52.360;13.134;2022-08-06T16:39:37;1.60;;;0.70;;
10063;SDS011;5071;52.360;13.134;2022-08-06T16:44:58;0.65;;;0.43;;
10063;SDS011;5071;52.360;13.134;2022-08-06T16:50:11;0.50;;;0.50;;
10063;SDS011;5071;52.360;13.134;2022-08-06T16:55:27;0.70;;;0.70;;
10063;SDS011;5071;52.360;13.134;2022-08-06T17:00:32;1.85;;;1.58;;
10063;SDS011;5071;52.360;13.134;2022-08-06T17:05:56;1.33;;;0.88;;
10063;SDS011;5071;52.360;13.134;2022-08-06T17:11:01;1.25;;;0.80;;
10063;SDS011;5071;52.360;13.134;2022-08-06T17:16:23;0.43;;;0.43;;
10063;SDS011;5071;52.360;13.134;2022-08-06T17:21:31;0.30;;;0.30;;
10063;SDS011;5071;52.360;13.134;2022-08-06T17:26:53;1.50;;;0.88;;
10063;SDS011;5071;52.360;13.134;2022-08-06T17:31:55;0.80;;;0.40;;
10063;SDS011;5071;52.360;13.134;2022-08-06T17:37:01;0.40;;;0.40;;
10063;SDS011;5071;52.360;13.134;2022-08-06T17:42:23;1.25;;;0.30;;
10063;SDS011;5071;52.360;13.134;2022-08-06T17:47:26;0.30;;;0.30;;
10063;SDS011;5071;52.360;13.134;2022-08-06T17:52:50;1.67;;;1.13;;
10063;SDS011;5071;52.360;13.134;2022-08-06T17:57:53;0.87;;;0.37;;
10063;SDS011;5071;52.360;13.134;2022-08-06T18:03:15;0.65;;;0.50;;
10063;SDS011;5071;52.360;13.134;2022-08-06T18:08:38;1.80;;;0.53;;
10063;SDS011;5071;52.360;13.134;2022-08-06T18:13:51;0.40;;;0.40;;
10063;SDS011;5071;52.360;13.134;2022-08-06T18:18:55;0.47;;;0.30;;
10063;SDS011;5071;52.360;13.134;2022-08-06T18:23:59;1.03;;;0.40;;
10063;SDS011;5071;52.360;13.134;2022-08-06T18:29:01;0.83;;;0.50;;
10063;SDS011;5071;52.360;13.134;2022-08-06T18:34:07;0.30;;;0.30;;
10063;SDS011;5071;52.360;13.134;2022-08-06T18:39:21;0.30;;;0.30;;
10063;SDS011;5071;52.360;13.134;2022-08-06T18:44:23;1.13;;;0.40;;
10063;SDS011;5071;52.360;13.134;2022-08-06T18:49:27;0.50;;;0.50;;
10063;SDS011;5071;52.360;13.134;2022-08-06T18:54:52;0.77;;;0.53;;
10063;SDS011;5071;52.360;13.134;2022-08-06T18:59:58;1.80;;;0.97;;
10063;SDS011;5071;52.360;13.134;2022-08-06T19:05:00;0.70;;;0.70;;
10063;SDS011;5071;52.360;13.134;2022-08-06T19:10:08;1.40;;;0.70;;
10063;SDS011;5071;52.360;13.134;2022-08-06T19:15:15;0.67;;;0.67;;
10063;SDS011;5071;52.360;13.134;2022-08-06T19:20:25;0.50;;;0.40;;
10063;SDS011;5071;52.360;13.134;2022-08-06T19:25:33;1.43;;;0.50;;
10063;SDS011;5071;52.360;13.134;2022-08-06T19:30:55;1.00;;;0.80;;
10063;SDS011;5071;52.360;13.134;2022-08-06T19:35:57;1.77;;;0.90;;
10063;SDS011;5071;52.360;13.134;2022-08-06T19:41:17;1.30;;;0.87;;
10063;SDS011;5071;52.360;13.134;2022-08-06T19:46:40;1.70;;;0.60;;
10063;SDS011;5071;52.360;13.134;2022-08-06T19:51:57;1.47;;;0.80;;
10063;SDS011;5071;52.360;13.134;2022-08-06T19:57:06;0.50;;;0.50;;
10063;SDS011;5071;52.360;13.134;2022-08-06T20:02:09;1.20;;;0.87;;
10063;SDS011;5071;52.360;13.134;2022-08-06T20:07:16;1.07;;;0.87;;
10063;SDS011;5071;52.360;13.134;2022-08-06T20:12:36;1.90;;;0.87;;
10063;SDS011;5071;52.360;13.134;2022-08-06T20:17:40;2.17;;;0.90;;
10063;SDS011;5071;52.360;13.134;2022-08-06T20:22:50;2.10;;;1.17;;
10063;SDS011;5071;52.360;13.134;2022-08-06T20:27:58;2.00;;;1.20;;
10063;SDS011;5071;52.360;13.134;2022-08-06T20:33:21;2.37;;;0.90;;
10063;SDS011;5071;52.360;13.134;2022-08-06T20:38:26;2.17;;;1.10;;
10063;SDS011;5071;52.360;13.134;2022-08-06T20:43:42;1.53;;;1.00;;
10063;SDS011;5071;52.360;13.134;2022-08-06T20:49:03;1.87;;;1.00;;
10063;SDS011;5071;52.360;13.134;2022-08-06T20:54:14;2.20;;;1.27;;
10063;SDS011;5071;52.360;13.134;2022-08-06T20:59:19;1.93;;;1.30;;
10063;SDS011;5071;52.360;13.134;2022-08-06T21:04:21;2.17;;;1.43;;
10063;SDS011;5071;52.360;13.134;2022-08-06T21:09:43;3.07;;;1.33;;
10063;SDS011;5071;52.360;13.134;2022-08-06T21:14:49;2.13;;;1.50;;
10063;SDS011;5071;52.360;13.134;2022-08-06T21:19:52;2.47;;;1.60;;
10063;SDS011;5071;52.360;13.134;2022-08-06T21:25:13;4.53;;;1.60;;
10063;SDS011;5071;52.360;13.134;2022-08-06T21:30:18;2.90;;;1.60;;
10063;SDS011;5071;52.360;13.134;2022-08-06T21:35:31;3.63;;;1.30;;
10063;SDS011;5071;52.360;13.134;2022-08-06T21:40:35;2.07;;;1.30;;
10063;SDS011;5071;52.360;13.134;2022-08-06T21:45:38;2.90;;;1.13;;
10063;SDS011;5071;52.360;13.134;2022-08-06T21:51:01;3.70;;;1.43;;
10063;SDS011;5071;52.360;13.134;2022-08-06T21:56:04;2.23;;;1.40;;
10063;SDS011;5071;52.360;13.134;2022-08-06T22:01:29;7.20;;;3.57;;
10063;SDS011;5071;52.360;13.134;2022-08-06T22:06:51;7.23;;;3.20;;
10063;SDS011;5071;52.360;13.134;2022-08-06T22:11:54;4.07;;;2.47;;
10063;SDS011;5071;52.360;13.134;2022-08-06T22:17:17;7.47;;;2.67;;
10063;SDS011;5071;52.360;13.134;2022-08-06T22:22:39;4.43;;;2.33;;
10063;SDS011;5071;52.360;13.134;2022-08-06T22:27:42;4.10;;;1.67;;
10063;SDS011;5071;52.360;13.134;2022-08-06T22:32:57;3.17;;;1.30;;
10063;SDS011;5071;52.360;13.134;2022-08-06T22:38:00;1.90;;;1.00;;
10063;SDS011;5071;52.360;13.134;2022-08-06T22:43:21;3.27;;;1.40;;
10063;SDS011;5071;52.360;13.134;2022-08-06T22:48:45;3.07;;;1.27;;
10063;SDS011;5071;52.360;13.134;2022-08-06T22:53:48;2.10;;;1.20;;
10063;SDS011;5071;52.360;13.134;2022-08-06T22:59:10;2.43;;;1.33;;
10063;SDS011;5071;52.360;13.134;2022-08-06T23:04:33;2.53;;;1.23;;
10063;SDS011;5071;52.360;13.134;2022-08-06T23:09:37;1.40;;;1.10;;
10063;SDS011;5071;52.360;13.134;2022-08-06T23:14:40;2.37;;;1.30;;
10063;SDS011;5071;52.360;13.134;2022-08-06T23:19:48;1.40;;;1.30;;
10063;SDS011;5071;52.360;13.134;2022-08-06T23:24:59;2.30;;;1.40;;
10063;SDS011;5071;52.360;13.134;2022-08-06T23:30:21;1.93;;;1.60;;
10063;SDS011;5071;52.360;13.134;2022-08-06T23:35:28;2.97;;;1.37;;
10063;SDS011;5071;52.360;13.134;2022-08-06T23:40:37;3.43;;;1.40;;
10063;SDS011;5071;52.360;13.134;2022-08-06T23:45:39;1.67;;;1.50;;
10063;SDS011;5071;52.360;13.134;2022-08-06T23:50:45;2.43;;;1.33;;
10063;SDS011;5071;52.360;13.134;2022-08-06T23:55:55;2.13;;;1.20;;
